PVJ weather

Pauls Valley Municipal Airport
Pauls Valley, Oklahoma, United States

Public forecast

Using degrees Fahrenheit for public forecast. Weather courtesy of forecast.io.

METAR (pilot weather report)

Report is more than 6 hours old.

Retrieved 2019/05/29 16:30 UTC (3 months ago):

KPVJ 291630Z AUTO 17024G43KT 1 1/4SM +TSRA SCT012 BKN020 OVC026 21/20 A2981 RMK AO2 LTG DSNT ALQS P0022 T02050198

TAF (pilot weather forecast)

Forecast is more than 12 hours old.

Closest forecast is University of Oklahoma Westheimer Airport, 34.3 nm (63.6 km) NNW. Retrieved 2019/08/24 00:42 UTC (1 day ago):

TAF KOUN 242339Z 2500/2524 13012KT P6SM SCT250 FM251400 13009KT P6SM -SHRA BKN040 TEMPO 2514/2518 4SM TS OVC015CB FM251800 18012KT P6SM SCT040 BKN120 PROB30 2518/2521 -SHRA BKN040